Latest Weather Observations for Melville Water

IDW60801

Issued at 11:05 am WST Saturday 25 October 2014 (issued every 30 minutes, with the page automatically refreshed every 10 minutes)

About weather observations | Map of weather stations | Latest weather observations for WA | Other Formats
Station Details ID: 009091 Name: INNER DOLPHIN PYLON Lat: -31.99 Lon: 115.83 Height: 0.0 m
Data from the previous 72 hours. | See also: Recent months for locations in Western Australia
Date/Time
WST
Temp
°C
App
Temp
°C
Dew
Point
Rel
Hum
%
Delta-T
°C
Wind Press
QNH
hPa
Press
MSL
hPa
Rain
since 9 am
mm
Dir
 
Spd
km/h
Gust
km/h
Spd
kts
Gust
kts
25/11:00am - - - - - WSW 24 35 13 19 - - -
25/10:30am - - - - - W 24 30 13 16 - - -
25/10:00am - - - - - W 19 26 10 14 - - -
25/09:30am - - - - - WSW 22 28 12 15 - - -
25/09:00am - - - - - WSW 20 30 11 16 - - -
25/08:30am - - - - - WSW 22 32 12 17 - - -
25/08:00am - - - - - WSW 24 30 13 16 - - -
25/07:30am - - - - - WSW 20 26 11 14 - - -
25/07:00am - - - - - WSW 17 20 9 11 - - -
25/06:30am - - - - - WSW 13 19 7 10 - - -
25/06:00am - - - - - WSW 17 22 9 12 - - -
25/05:30am - - - - - WSW 19 24 10 13 - - -
25/05:00am - - - - - WSW 13 19 7 10 - - -
25/04:30am - - - - - W 6 11 3 6 - - -
25/04:00am - - - - - NNE 7 9 4 5 - - -
25/03:30am - - - - - E 6 7 3 4 - - -
25/03:00am - - - - - E 4 6 2 3 - - -
25/02:30am - - - - - E 7 9 4 5 - - -
25/02:00am - - - - - ESE 6 7 3 4 - - -
25/01:30am - - - - - E 9 11 5 6 - - -
25/01:00am - - - - - ESE 7 9 4 5 - - -
25/12:30am - - - - - SE 9 11 5 6 - - -
25/12:00am - - - - - SSW 11 15 6 8 - - -
 
Date/Time
WST
Temp
°C
App
Temp
°C
Dew
Point
Rel
Hum
%
Delta-T
°C
Wind Press
QNH
hPa
Press
MSL
hPa
Rain
since 9 am
mm
Dir
 
Spd
km/h
Gust
km/h
Spd
kts
Gust
kts
24/11:30pm - - - - - SW 13 19 7 10 - - -
24/11:00pm - - - - - WSW 13 17 7 9 - - -
24/10:30pm - - - - - SW 13 15 7 8 - - -
24/10:00pm - - - - - SW 15 19 8 10 - - -
24/09:30pm - - - - - SW 15 19 8 10 - - -
24/09:00pm - - - - - SW 17 19 9 10 - - -
24/08:30pm - - - - - SSW 17 20 9 11 - - -
24/08:00pm - - - - - SSW 15 19 8 10 - - -
24/07:30pm - - - - - SW 17 20 9 11 - - -
24/07:00pm - - - - - SSW 20 24 11 13 - - -
24/06:30pm - - - - - SW 19 22 10 12 - - -
24/06:00pm - - - - - SW 22 28 12 15 - - -
24/05:30pm - - - - - SW 24 30 13 16 - - -
24/05:00pm - - - - - SW 24 28 13 15 - - -
24/04:30pm - - - - - SW 22 26 12 14 - - -
24/04:00pm - - - - - WSW 22 28 12 15 - - -
24/03:30pm - - - - - WSW 20 24 11 13 - - -
24/03:00pm - - - - - WSW 20 24 11 13 - - -
24/02:30pm - - - - - WSW 22 26 12 14 - - -
24/02:00pm - - - - - WSW 22 26 12 14 - - -
24/01:30pm - - - - - WSW 24 28 13 15 - - -
24/01:00pm - - - - - WSW 24 28 13 15 - - -
24/12:30pm - - - - - WSW 22 26 12 14 - - -
24/12:00pm - - - - - SW 11 13 6 7 - - -
24/11:30am - - - - - SW 9 11 5 6 - - -
24/11:00am - - - - - SW 9 11 5 6 - - -
24/10:30am - - - - - WSW 7 9 4 5 - - -
24/10:00am - - - - - WSW 7 11 4 6 - - -
24/09:30am - - - - - SSW 4 7 2 4 - - -
24/09:00am - - - - - SSE 4 6 2 3 - - -
24/08:30am - - - - - E 11 15 6 8 - - -
24/08:00am - - - - - ENE 9 15 5 8 - - -
24/07:30am - - - - - E 13 17 7 9 - - -
24/07:00am - - - - - E 13 19 7 10 - - -
24/06:30am - - - - - SSE 2 9 1 5 - - -
24/06:00am - - - - - ESE 11 15 6 8 - - -
24/05:30am - - - - - E 9 11 5 6 - - -
24/05:00am - - - - - E 9 11 5 6 - - -
24/04:30am - - - - - ESE 11 15 6 8 - - -
24/04:00am - - - - - ESE 7 11 4 6 - - -
24/03:30am - - - - - SE 6 9 3 5 - - -
24/03:00am - - - - - ESE 7 9 4 5 - - -
24/02:30am - - - - - SSE 7 9 4 5 - - -
24/02:00am - - - - - S 9 11 5 6 - - -
24/01:30am - - - - - S 7 9 4 5 - - -
24/01:00am - - - - - S 9 13 5 7 - - -
24/12:30am - - - - - S 9 11 5 6 - - -
24/12:00am - - - - - S 11 15 6 8 - - -
 
Date/Time
WST
Temp
°C
App
Temp
°C
Dew
Point
Rel
Hum
%
Delta-T
°C
Wind Press
QNH
hPa
Press
MSL
hPa
Rain
since 9 am
mm
Dir
 
Spd
km/h
Gust
km/h
Spd
kts
Gust
kts
23/11:30pm - - - - - SSE 11 17 6 9 - - -
23/11:00pm - - - - - S 13 17 7 9 - - -
23/10:30pm - - - - - S 13 17 7 9 - - -
23/10:00pm - - - - - S 11 15 6 8 - - -
23/09:30pm - - - - - S 11 15 6 8 - - -
23/09:00pm - - - - - SSW 13 17 7 9 - - -
23/08:30pm - - - - - SSW 11 17 6 9 - - -
23/08:00pm - - - - - S 11 15 6 8 - - -
23/07:30pm - - - - - SSW 17 20 9 11 - - -
23/07:00pm - - - - - SSW 22 26 12 14 - - -
23/06:30pm - - - - - SSW 22 28 12 15 - - -
23/06:00pm - - - - - SW 24 30 13 16 - - -
23/05:30pm - - - - - SW 26 30 14 16 - - -
23/05:00pm - - - - - SW 22 26 12 14 - - -
23/04:30pm - - - - - SW 22 28 12 15 - - -
23/04:00pm - - - - - SW 20 26 11 14 - - -
23/03:30pm - - - - - SW 24 33 13 18 - - -
23/03:00pm - - - - - SW 24 35 13 19 - - -
23/02:30pm - - - - - SW 24 28 13 15 - - -
23/02:00pm - - - - - WSW 24 33 13 18 - - -
23/01:30pm - - - - - WSW 22 28 12 15 - - -
23/01:00pm - - - - - WSW 24 30 13 16 - - -
23/12:30pm - - - - - WSW 24 30 13 16 - - -
23/12:00pm - - - - - WSW 26 32 14 17 - - -
23/11:30am - - - - - WSW 24 33 13 18 - - -
23/11:00am - - - - - WSW 22 30 12 16 - - -
23/10:30am - - - - - WSW 22 26 12 14 - - -
23/10:00am - - - - - WNW 20 28 11 15 - - -
23/09:30am - - - - - WSW 20 32 11 17 - - -
23/09:00am - - - - - W 20 28 11 15 - - -
23/08:30am - - - - - W 20 32 11 17 - - -
23/08:00am - - - - - W 20 28 11 15 - - -
23/07:30am - - - - - W 22 30 12 16 - - -
23/07:00am - - - - - WSW 22 28 12 15 - - -
23/06:30am - - - - - W 11 17 6 9 - - -
23/06:00am - - - - - WNW 7 11 4 6 - - -
23/05:30am - - - - - WNW 6 9 3 5 - - -
23/05:00am - - - - - WNW 6 9 3 5 - - -
23/04:30am - - - - - NNW 6 9 3 5 - - -
23/04:00am - - - - - NNW 9 11 5 6 - - -
23/03:30am - - - - - WNW 17 30 9 16 - - -
23/03:19am - - - - - WNW 32 43 17 23 - - -
23/03:00am - - - - - NW 6 9 3 5 - - -
23/02:30am - - - - - NNE 15 19 8 10 - - -
23/02:00am - - - - - N 15 19 8 10 - - -
23/01:30am - - - - - N 15 19 8 10 - - -
23/01:00am - - - - - N 13 19 7 10 - - -
23/12:30am - - - - - N 13 17 7 9 - - -
23/12:00am - - - - - N 13 17 7 9 - - -
 
Date/Time
WST
Temp
°C
App
Temp
°C
Dew
Point
Rel
Hum
%
Delta-T
°C
Wind Press
QNH
hPa
Press
MSL
hPa
Rain
since 9 am
mm
Dir
 
Spd
km/h
Gust
km/h
Spd
kts
Gust
kts
22/11:30pm - - - - - N 11 15 6 8 - - -
22/11:00pm - - - - - NNW 11 15 6 8 - - -
22/10:30pm - - - - - NW 11 13 6 7 - - -
22/10:00pm - - - - - WNW 13 15 7 8 - - -
22/09:30pm - - - - - NNW 20 28 11 15 - - -
22/09:00pm - - - - - NW 19 28 10 15 - - -
22/08:30pm - - - - - NW 17 26 9 14 - - -
22/08:00pm - - - - - NW 17 24 9 13 - - -
22/07:30pm - - - - - WNW 13 19 7 10 - - -
22/07:00pm - - - - - WNW 19 28 10 15 - - -
22/06:30pm - - - - - WNW 20 30 11 16 - - -
22/06:00pm - - - - - WNW 20 33 11 18 - - -
22/05:30pm - - - - - WNW 30 39 16 21 - - -
22/05:05pm - - - - - WNW 32 52 17 28 - - -
22/05:00pm - - - - - WNW 28 39 15 21 - - -
22/04:30pm - - - - - WNW 22 37 12 20 - - -
22/04:00pm - - - - - NW 24 35 13 19 - - -
22/03:54pm - - - - - NW 28 46 15 25 - - -
22/03:30pm - - - - - WNW 22 41 12 22 - - -
22/03:00pm - - - - - WNW 28 44 15 24 - - -
22/02:35pm - - - - - NW 30 48 16 26 - - -
22/02:30pm - - - - - NW 32 48 17 26 - - -
22/02:03pm - - - - - NW 35 54 19 29 - - -
22/02:00pm - - - - - NW 37 54 20 29 - - -
22/01:46pm - - - - - NW 33 52 18 28 - - -
22/01:30pm - - - - - NW 35 48 19 26 - - -
22/01:16pm - - - - - NW 28 46 15 25 - - -
22/01:00pm - - - - - NW 30 44 16 24 - - -
22/12:30pm - - - - - N 19 28 10 15 - - -
22/12:00pm - - - - - NNE 26 30 14 16 - - -
22/11:30am - - - - - NE 26 35 14 19 - - -

Other Formats:

Comma delimited format used in spreadsheet applications
http://www.bom.gov.au/fwo/IDW60801/IDW60801.95620.axf

JavaScript Object Notation format (JSON) in row-major order
http://www.bom.gov.au/fwo/IDW60801/IDW60801.95620.json